Time;durP1;ratioP1;P1;durP2;ratioP2;P2;SDS_P1;SDS_P2;PMS_P1;PMS_P2;Temp;Humidity;BMP_temperature;BMP_pressure;BME280_temperature;BME280_humidity;BME280_pressure;Samples;Min_cycle;Max_cycle;Signal;HPM_P1;HPM_P2
2024/01/29 00:01:43;;;;;;;4.28;2.78;;;;;;;15.86;44.92;102537.53;5041670;28;20041;-41
2024/01/29 00:04:09;;;;;;;4.75;2.75;;;;;;;15.92;44.74;102553.19;5044675;28;20048;-41
2024/01/29 00:06:36;;;;;;;4.10;3.00;;;;;;;15.96;44.75;102550.25;5042950;28;20208;-41
2024/01/29 00:09:03;;;;;;;3.72;2.45;;;;;;;16.00;44.57;102550.88;5043487;28;20053;-41
2024/01/29 00:11:29;;;;;;;3.67;2.60;;;;;;;16.02;43.88;102549.84;5041420;28;20095;-41
2024/01/29 00:13:56;;;;;;;4.00;2.55;;;;;;;16.05;43.62;102540.75;5030453;28;20786;-41
2024/01/29 00:16:23;;;;;;;3.70;2.78;;;;;;;16.06;44.54;102545.16;5043303;28;20096;-42
2024/01/29 00:18:50;;;;;;;3.85;2.67;;;;;;;16.08;44.48;102545.03;5041803;28;20412;-41
2024/01/29 00:21:17;;;;;;;3.22;2.75;;;;;;;16.08;43.51;102537.00;5044353;28;20169;-41
2024/01/29 00:23:43;;;;;;;4.18;2.83;;;;;;;16.07;44.17;102530.81;5044868;28;20106;-42
2024/01/29 00:26:11;;;;;;;4.85;3.28;;;;;;;16.08;44.00;102529.00;5044274;28;20399;-41
2024/01/29 00:28:38;;;;;;;3.90;2.55;;;;;;;16.07;43.32;102528.13;5042870;28;20053;-42
2024/01/29 00:31:04;;;;;;;3.47;2.50;;;;;;;16.07;43.65;102525.47;5045053;28;20098;-41
2024/01/29 00:33:31;;;;;;;4.68;2.92;;;;;;;16.07;43.51;102529.94;5040554;28;20456;-43
2024/01/29 00:35:58;;;;;;;4.20;2.70;;;;;;;16.07;43.29;102525.47;5043169;28;20133;-42
2024/01/29 00:38:25;;;;;;;3.40;2.72;;;;;;;16.07;43.30;102521.94;5041008;28;20080;-41
2024/01/29 00:40:51;;;;;;;3.05;2.47;;;;;;;16.08;43.53;102537.00;5040869;28;20049;-42
2024/01/29 00:43:18;;;;;;;3.67;2.50;;;;;;;16.06;43.21;102534.44;5040973;28;20337;-42
2024/01/29 00:45:44;;;;;;;3.42;2.42;;;;;;;16.06;43.85;102534.44;5041348;28;20049;-41
2024/01/29 00:48:11;;;;;;;4.53;2.45;;;;;;;16.05;43.27;102538.09;5039651;28;20041;-42
2024/01/29 00:50:38;;;;;;;3.88;2.67;;;;;;;16.05;43.15;102546.13;5040389;28;20060;-41
2024/01/29 00:53:05;;;;;;;4.32;2.88;;;;;;;16.03;43.24;102545.34;5040097;28;20370;-40
2024/01/29 00:55:32;;;;;;;4.57;3.03;;;;;;;16.03;43.30;102545.34;5039036;28;20095;-41
2024/01/29 00:57:58;;;;;;;4.07;3.17;;;;;;;16.02;43.88;102543.63;5039242;28;20080;-42
2024/01/29 01:00:25;;;;;;;3.90;2.60;;;;;;;15.99;44.03;102542.00;5039896;28;20044;-41
2024/01/29 01:02:52;;;;;;;3.45;2.80;;;;;;;15.98;43.81;102542.09;5039348;28;20061;-41
2024/01/29 01:05:20;;;;;;;4.60;2.67;;;;;;;15.96;43.69;102539.53;5039481;28;20057;-41
2024/01/29 01:07:47;;;;;;;4.03;2.70;;;;;;;15.94;44.19;102541.44;5041316;28;20163;-42
2024/01/29 01:10:13;;;;;;;5.43;3.08;;;;;;;15.94;44.21;102540.59;5039335;28;20083;-42
2024/01/29 01:12:40;;;;;;;4.10;2.58;;;;;;;15.92;44.17;102551.41;5039906;28;20108;-42
2024/01/29 01:15:07;;;;;;;4.30;3.08;;;;;;;15.91;43.32;102554.16;5039996;28;20045;-41
2024/01/29 01:17:33;;;;;;;3.80;2.57;;;;;;;15.87;43.87;102553.47;5038482;28;20392;-41
2024/01/29 01:20:00;;;;;;;4.07;2.95;;;;;;;15.84;43.62;102547.47;5040874;28;20399;-41
2024/01/29 01:22:27;;;;;;;3.95;2.80;;;;;;;15.80;43.79;102549.50;5040029;28;20057;-42
2024/01/29 01:24:53;;;;;;;4.90;2.58;;;;;;;15.76;44.26;102548.84;5039219;28;20099;-41
2024/01/29 01:27:20;;;;;;;4.72;3.03;;;;;;;15.70;43.39;102554.56;5038848;28;20053;-41
2024/01/29 01:29:47;;;;;;;5.22;3.08;;;;;;;15.64;43.36;102560.28;5039904;28;20450;-41
2024/01/29 01:32:13;;;;;;;4.05;2.92;;;;;;;15.58;43.42;102549.09;5036788;28;20052;-42
2024/01/29 01:34:40;;;;;;;3.33;2.38;;;;;;;15.52;44.09;102556.53;5040009;28;20405;-39
2024/01/29 01:37:07;;;;;;;4.03;2.67;;;;;;;15.54;44.48;102551.94;5041975;28;20123;-40
2024/01/29 01:39:33;;;;;;;3.80;2.60;;;;;;;15.59;44.02;102554.31;5033249;28;20073;-40
2024/01/29 01:42:00;;;;;;;3.60;2.42;;;;;;;15.62;44.70;102556.81;5026968;28;20132;-39
2024/01/29 01:44:27;;;;;;;4.47;2.80;;;;;;;15.69;44.82;102558.19;5045154;28;20114;-40
2024/01/29 01:46:53;;;;;;;4.47;2.67;;;;;;;15.76;43.84;102564.03;5040569;28;20048;-39
2024/01/29 01:49:21;;;;;;;3.60;2.50;;;;;;;15.83;44.75;102561.81;5041535;28;20413;-40
2024/01/29 01:51:49;;;;;;;3.35;2.45;;;;;;;15.89;44.73;102559.59;5037598;28;20061;-40
2024/01/29 01:54:17;;;;;;;3.50;2.70;;;;;;;15.96;44.42;102562.72;5047637;28;20310;-40
2024/01/29 01:56:46;;;;;;;4.10;3.03;;;;;;;16.01;43.30;102566.00;5041012;28;20095;-40
2024/01/29 01:59:13;;;;;;;3.22;2.50;;;;;;;16.05;43.34;102562.16;5035949;28;20400;-39
2024/01/29 02:01:40;;;;;;;3.35;2.22;;;;;;;16.07;43.78;102562.91;5047980;28;20401;-40
2024/01/29 02:04:07;;;;;;;4.72;2.83;;;;;;;16.10;43.49;102568.06;5036329;28;20057;-39
2024/01/29 02:06:34;;;;;;;4.63;2.72;;;;;;;16.11;44.16;102555.53;5046772;28;20130;-40
2024/01/29 02:09:01;;;;;;;3.83;2.78;;;;;;;16.12;43.29;102558.13;5047739;28;20049;-40
2024/01/29 02:11:28;;;;;;;4.40;2.50;;;;;;;16.12;43.26;102558.13;5047190;28;20056;-39
2024/01/29 02:13:55;;;;;;;2.80;2.47;;;;;;;16.11;43.26;102564.44;5048390;28;20103;-40
2024/01/29 02:16:22;;;;;;;5.70;3.22;;;;;;;16.12;43.80;102562.59;5046025;28;20218;-40
2024/01/29 02:18:48;;;;;;;2.88;2.33;;;;;;;16.11;43.24;102563.56;5046374;28;20512;-42
2024/01/29 02:21:15;;;;;;;3.88;2.60;;;;;;;16.10;44.27;102568.06;5048570;28;20053;-40
2024/01/29 02:23:45;;;;;;;3.53;2.70;;;;;;;16.09;43.85;102563.69;5046305;28;20136;-40
2024/01/29 02:26:12;;;;;;;4.22;2.70;;;;;;;16.09;44.30;102563.69;5045263;28;20411;-41
2024/01/29 02:28:39;;;;;;;3.75;2.33;;;;;;;16.08;43.82;102563.75;5043362;28;20052;-40
2024/01/29 02:31:06;;;;;;;3.20;2.65;;;;;;;16.07;44.21;102554.88;5045389;28;20106;-41
2024/01/29 02:33:33;;;;;;;3.08;2.30;;;;;;;16.07;44.05;102570.06;5038927;28;20060;-40
2024/01/29 02:36:00;;;;;;;4.95;2.50;;;;;;;16.06;44.32;102566.53;5042302;28;20075;-40
2024/01/29 02:38:27;;;;;;;3.42;2.35;;;;;;;16.05;43.39;102562.16;5042103;28;20061;-40
2024/01/29 02:40:53;;;;;;;3.42;2.50;;;;;;;16.04;43.44;102568.47;5038987;28;20387;-40
2024/01/29 02:43:20;;;;;;;2.28;2.08;;;;;;;16.04;43.54;102560.44;5041777;28;20122;-40
2024/01/29 02:45:48;;;;;;;3.83;2.40;;;;;;;16.03;43.60;102561.38;5042885;28;20045;-40
2024/01/29 02:48:15;;;;;;;4.65;2.47;;;;;;;16.02;44.25;102565.88;5041648;28;20049;-40
2024/01/29 02:50:41;;;;;;;3.28;2.28;;;;;;;16.02;44.45;102565.03;5038372;28;20080;-40
2024/01/29 02:53:08;;;;;;;3.58;2.53;;;;;;;16.00;43.31;102566.91;5042535;28;20114;-41
2024/01/29 02:55:35;;;;;;;2.95;2.15;;;;;;;15.99;43.23;102566.06;5040276;28;20103;-40
2024/01/29 02:58:02;;;;;;;3.97;2.90;;;;;;;15.97;43.76;102572.50;5039585;28;20048;-40
2024/01/29 03:00:31;;;;;;;3.53;2.25;;;;;;;15.96;43.73;102576.09;5039099;28;20053;-41
2024/01/29 03:02:58;;;;;;;4.00;2.40;;;;;;;15.95;44.54;102579.72;5040376;28;20160;-42
2024/01/29 03:05:25;;;;;;;3.92;2.55;;;;;;;15.94;44.22;102583.38;5026898;28;20371;-40
2024/01/29 03:07:51;;;;;;;4.57;3.00;;;;;;;15.93;43.51;102587.88;5039029;28;20391;-41
2024/01/29 03:10:18;;;;;;;3.45;2.53;;;;;;;15.91;43.46;102578.22;5041501;28;20069;-40
2024/01/29 03:12:44;;;;;;;3.28;2.50;;;;;;;15.92;44.76;102586.16;5038246;28;20428;-41
2024/01/29 03:15:11;;;;;;;3.75;2.35;;;;;;;15.87;44.83;102582.03;5032304;28;20436;-40
2024/01/29 03:17:38;;;;;;;3.47;2.65;;;;;;;15.90;44.71;102584.53;5035074;28;20396;-41
2024/01/29 03:20:05;;;;;;;3.13;2.10;;;;;;;15.96;44.57;102592.16;5038386;28;20041;-41
2024/01/29 03:22:32;;;;;;;5.72;2.50;;;;;;;16.02;44.53;102602.47;5033759;28;20099;-41
2024/01/29 03:24:58;;;;;;;2.42;1.90;;;;;;;16.09;44.30;102592.25;5038393;28;20045;-41
2024/01/29 03:27:25;;;;;;;3.60;2.50;;;;;;;16.14;44.24;102590.13;5034230;28;20052;-41
2024/01/29 03:29:51;;;;;;;3.13;2.30;;;;;;;16.16;43.52;102593.53;5043364;28;20045;-41
2024/01/29 03:32:18;;;;;;;3.40;2.20;;;;;;;16.16;43.82;102599.78;5040440;28;20053;-40
2024/01/29 03:34:45;;;;;;;3.90;2.72;;;;;;;16.17;43.38;102600.63;5042299;28;20103;-41
2024/01/29 03:37:12;;;;;;;3.70;2.53;;;;;;;16.14;43.94;102595.47;5041501;28;20064;-41
2024/01/29 03:39:39;;;;;;;2.75;2.20;;;;;;;16.14;44.27;102599.00;5038273;28;20413;-41
2024/01/29 03:42:05;;;;;;;4.22;3.00;;;;;;;16.11;44.24;102593.84;5042005;28;20053;-41
2024/01/29 03:44:32;;;;;;;3.42;2.60;;;;;;;16.08;44.14;102587.84;5045766;28;20107;-40
2024/01/29 03:46:59;;;;;;;4.13;2.38;;;;;;;16.07;44.16;102583.44;5039721;28;20044;-41
2024/01/29 03:49:25;;;;;;;3.25;2.38;;;;;;;16.05;44.30;102580.88;5043408;28;20044;-40
2024/01/29 03:51:52;;;;;;;3.30;2.17;;;;;;;16.06;43.68;102579.06;5039033;28;20061;-40
2024/01/29 03:54:19;;;;;;;3.40;2.30;;;;;;;16.04;43.56;102573.81;5039415;28;20049;-41
2024/01/29 03:56:45;;;;;;;3.30;2.28;;;;;;;16.02;43.75;102579.25;5041003;28;20073;-40
2024/01/29 03:59:12;;;;;;;3.28;2.35;;;;;;;16.02;44.67;102573.03;5039442;28;20072;-41
2024/01/29 04:01:38;;;;;;;3.53;2.55;;;;;;;16.01;44.33;102569.53;5042999;28;20048;-41
2024/01/29 04:04:10;;;;;;;3.22;2.30;;;;;;;15.99;43.63;102566.06;5045986;28;20057;-41
2024/01/29 04:06:40;;;;;;;4.78;2.40;;;;;;;15.97;44.03;102568.00;5045351;28;20492;-42
2024/01/29 04:09:10;;;;;;;3.53;2.60;;;;;;;15.98;44.43;102566.19;5041408;28;20170;-41
2024/01/29 04:11:36;;;;;;;3.88;2.83;;;;;;;15.98;44.47;102566.19;5039064;28;20057;-40
2024/01/29 04:14:03;;;;;;;3.70;2.55;;;;;;;15.95;44.13;102569.03;5044868;28;20057;-41
2024/01/29 04:16:30;;;;;;;3.60;2.70;;;;;;;15.95;43.94;102579.72;5046921;28;20554;-41
2024/01/29 04:18:57;;;;;;;4.57;2.47;;;;;;;15.92;43.98;102583.47;5043703;28;20045;-41
2024/01/29 04:21:24;;;;;;;3.42;2.50;;;;;;;15.93;43.58;102584.34;5043331;28;20049;-41
2024/01/29 04:23:52;;;;;;;4.00;2.95;;;;;;;15.92;44.66;102582.59;5042604;28;20376;-41
2024/01/29 04:26:19;;;;;;;6.57;2.50;;;;;;;15.90;44.47;102577.34;5046285;28;20059;-41
2024/01/29 04:28:46;;;;;;;2.67;2.15;;;;;;;15.89;43.65;102585.50;5037397;28;20057;-41
2024/01/29 04:31:13;;;;;;;3.80;2.67;;;;;;;15.87;44.34;102569.53;5044868;28;20044;-40
2024/01/29 04:33:42;;;;;;;4.97;2.20;;;;;;;15.86;43.84;102583.00;5026868;28;20148;-41
2024/01/29 04:36:12;;;;;;;3.28;2.22;;;;;;;15.85;43.80;102575.94;5043023;28;20045;-41
2024/01/29 04:38:39;;;;;;;4.20;2.20;;;;;;;15.83;44.91;102577.84;5043246;28;20053;-41
2024/01/29 04:41:06;;;;;;;3.85;2.50;;;;;;;15.77;45.03;102568.41;5039227;28;20045;-40
2024/01/29 04:43:33;;;;;;;3.47;2.63;;;;;;;15.72;45.14;102587.41;5039182;28;20080;-40
2024/01/29 04:45:59;;;;;;;3.92;2.53;;;;;;;15.67;45.13;102576.13;5040643;28;20082;-40
2024/01/29 04:48:27;;;;;;;3.55;2.30;;;;;;;15.67;44.10;102575.28;5040417;28;20072;-41
2024/01/29 04:50:53;;;;;;;2.63;2.10;;;;;;;15.68;44.98;102579.69;5041871;28;20061;-41
2024/01/29 04:53:20;;;;;;;3.08;2.33;;;;;;;15.70;44.82;102583.97;5039509;28;20049;-41
2024/01/29 04:55:47;;;;;;;4.43;2.30;;;;;;;15.71;44.54;102582.13;5034646;28;20050;-41
2024/01/29 04:58:14;;;;;;;3.88;2.80;;;;;;;15.73;44.58;102570.41;5038553;28;20060;-40
2024/01/29 05:00:40;;;;;;;3.30;2.50;;;;;;;15.76;44.23;102575.56;5038525;28;20313;-41
2024/01/29 05:03:07;;;;;;;3.50;2.60;;;;;;;15.83;44.25;102567.16;5037343;28;20060;-41
2024/01/29 05:05:34;;;;;;;4.28;2.40;;;;;;;15.89;44.78;102580.16;5039144;28;20459;-41
2024/01/29 05:08:01;;;;;;;4.10;2.40;;;;;;;15.94;44.74;102575.34;5038165;28;20044;-41
2024/01/29 05:10:28;;;;;;;2.60;2.20;;;;;;;15.99;44.05;102582.13;5038337;28;20305;-40
2024/01/29 05:12:54;;;;;;;2.72;2.47;;;;;;;16.02;44.15;102571.22;5034858;28;20053;-41
2024/01/29 05:15:22;;;;;;;3.17;2.83;;;;;;;16.05;43.59;102570.19;5038279;28;20511;-42
2024/01/29 05:17:48;;;;;;;4.00;2.60;;;;;;;16.05;43.81;102559.47;5038504;28;20590;-40
2024/01/29 05:20:15;;;;;;;3.05;2.35;;;;;;;16.07;43.83;102567.41;5039223;28;20037;-40
2024/01/29 05:22:42;;;;;;;3.15;2.67;;;;;;;16.07;43.63;102560.22;5038321;28;20049;-41
2024/01/29 05:25:09;;;;;;;6.13;2.58;;;;;;;16.08;44.55;102555.72;5034595;28;20057;-40
2024/01/29 05:27:36;;;;;;;3.40;2.50;;;;;;;16.06;44.24;102563.88;5037982;28;20053;-41
2024/01/29 05:30:03;;;;;;;3.10;2.33;;;;;;;16.07;43.72;102554.03;5036619;28;20072;-41
2024/01/29 05:32:29;;;;;;;3.00;2.38;;;;;;;16.04;44.65;102563.13;5041426;28;20089;-40
2024/01/29 05:34:56;;;;;;;3.17;2.45;;;;;;;16.03;44.58;102574.75;5023705;28;20053;-41
2024/01/29 05:37:23;;;;;;;3.50;2.47;;;;;;;16.02;44.19;102565.03;5038254;28;20425;-41
2024/01/29 05:39:50;;;;;;;4.00;2.42;;;;;;;16.02;43.74;102575.72;5038608;28;20045;-40
2024/01/29 05:42:16;;;;;;;3.40;2.67;;;;;;;15.98;44.57;102566.19;5040246;28;20056;-40
2024/01/29 05:44:43;;;;;;;3.33;2.53;;;;;;;15.97;44.17;102578.69;5034985;28;20119;-42
2024/01/29 05:47:09;;;;;;;2.97;2.10;;;;;;;15.96;43.88;102574.31;5023572;28;20114;-41
2024/01/29 05:49:36;;;;;;;2.97;2.20;;;;;;;15.95;43.87;102574.38;5039311;28;20053;-40
2024/01/29 05:52:03;;;;;;;3.55;2.50;;;;;;;15.94;43.70;102588.72;5039963;28;20072;-41
2024/01/29 05:54:30;;;;;;;4.10;2.60;;;;;;;15.93;43.71;102595.03;5044776;28;20165;-41
2024/01/29 05:56:57;;;;;;;3.83;2.72;;;;;;;15.92;44.85;102604.00;5037784;28;20444;-41
2024/01/29 05:59:23;;;;;;;2.95;2.45;;;;;;;15.91;44.69;102600.47;5042271;28;20125;-41
2024/01/29 06:01:50;;;;;;;3.20;2.22;;;;;;;15.90;44.50;102601.44;5038778;28;20072;-41
2024/01/29 06:04:17;;;;;;;3.80;2.50;;;;;;;15.90;43.62;102614.78;5038058;28;20088;-40
2024/01/29 06:06:44;;;;;;;3.10;2.35;;;;;;;15.89;43.89;102614.91;5036837;28;20172;-41
2024/01/29 06:09:11;;;;;;;4.68;2.85;;;;;;;15.88;44.49;102614.03;5039323;28;20053;-42
2024/01/29 06:11:37;;;;;;;3.42;2.60;;;;;;;15.86;44.74;102607.91;5020853;28;20056;-41
2024/01/29 06:14:04;;;;;;;3.15;2.50;;;;;;;15.85;43.85;102606.22;5034575;28;20354;-41
2024/01/29 06:16:30;;;;;;;3.65;2.55;;;;;;;15.84;44.73;102617.88;5041277;28;20049;-41
2024/01/29 06:18:57;;;;;;;3.50;2.33;;;;;;;15.83;44.80;102610.78;5039257;28;20511;-42
2024/01/29 06:21:24;;;;;;;4.30;3.20;;;;;;;15.83;43.92;102605.44;5037293;28;20063;-41
2024/01/29 06:23:51;;;;;;;3.55;2.83;;;;;;;15.79;44.09;102604.75;5036991;28;20401;-41
2024/01/29 06:26:17;;;;;;;3.53;2.45;;;;;;;15.83;44.88;102615.28;5033882;28;20056;-41
2024/01/29 06:28:44;;;;;;;4.18;2.65;;;;;;;15.88;44.25;102616.72;5038083;28;20095;-41
2024/01/29 06:31:11;;;;;;;2.50;2.30;;;;;;;15.93;44.77;102611.94;5033467;28;20422;-41
2024/01/29 06:33:38;;;;;;;3.63;2.60;;;;;;;15.97;44.04;102604.59;5035859;28;20045;-41
2024/01/29 06:36:08;;;;;;;3.28;2.28;;;;;;;16.03;44.79;102609.53;5042515;28;20064;-41
2024/01/29 06:38:35;;;;;;;3.35;2.38;;;;;;;16.07;44.66;102608.38;5035251;28;20080;-41
2024/01/29 06:41:01;;;;;;;3.47;2.72;;;;;;;16.10;44.36;102610.88;5038871;28;20130;-41
2024/01/29 06:43:28;;;;;;;2.50;2.03;;;;;;;16.12;44.61;102606.28;5037945;28;20053;-41
2024/01/29 06:45:58;;;;;;;4.00;3.08;;;;;;;16.12;44.47;102613.44;5039593;28;20071;-41
2024/01/29 06:48:24;;;;;;;3.08;2.25;;;;;;;16.10;43.75;102605.50;5039336;28;20055;-40
2024/01/29 06:50:51;;;;;;;4.05;2.35;;;;;;;16.10;43.78;102610.00;5038584;28;20503;-40
2024/01/29 06:53:17;;;;;;;3.55;2.67;;;;;;;16.08;44.17;102611.91;5038694;28;20470;-41
2024/01/29 06:55:44;;;;;;;3.17;2.28;;;;;;;16.07;43.96;102615.53;5039675;28;20057;-41
2024/01/29 06:58:11;;;;;;;3.47;2.40;;;;;;;16.05;44.15;102626.34;5037307;28;20048;-40
2024/01/29 07:00:37;;;;;;;3.55;2.67;;;;;;;16.02;43.86;102624.72;5042431;28;20076;-40
2024/01/29 07:03:04;;;;;;;3.92;2.60;;;;;;;15.98;44.49;102628.53;5036210;28;20061;-40
2024/01/29 07:05:31;;;;;;;4.32;2.90;;;;;;;15.98;43.70;102633.03;5037184;28;20053;-42
2024/01/29 07:07:58;;;;;;;3.20;2.47;;;;;;;15.96;43.91;102629.59;5038717;28;20049;-40
2024/01/29 07:10:24;;;;;;;3.78;2.55;;;;;;;15.95;43.87;102633.22;5039060;28;20061;-40
2024/01/29 07:12:51;;;;;;;3.63;2.53;;;;;;;15.93;44.03;102640.50;5037694;28;20045;-39
2024/01/29 07:15:18;;;;;;;5.70;2.42;;;;;;;15.93;44.91;102637.81;5038975;28;20419;-40
2024/01/29 07:17:46;;;;;;;3.72;2.60;;;;;;;15.92;44.98;102641.44;5038717;28;20045;-40
2024/01/29 07:20:12;;;;;;;3.75;2.38;;;;;;;15.91;44.22;102640.56;5039567;28;20291;-40
2024/01/29 07:22:39;;;;;;;4.55;2.60;;;;;;;15.89;44.24;102638.97;5037416;28;20432;-39
2024/01/29 07:25:06;;;;;;;3.08;2.47;;;;;;;15.88;44.63;102638.13;5038469;28;20053;-40
2024/01/29 07:27:33;;;;;;;3.08;2.45;;;;;;;15.88;44.59;102646.13;5036441;28;20499;-40
2024/01/29 07:30:00;;;;;;;3.80;2.40;;;;;;;15.86;45.03;102640.00;5038863;28;20053;-42
2024/01/29 07:32:31;;;;;;;4.10;2.85;;;;;;;15.85;44.17;102646.31;5038094;28;20148;-40
2024/01/29 07:35:00;;;;;;;3.95;2.55;;;;;;;15.85;44.98;102653.47;5038662;28;20088;-40
2024/01/29 07:37:28;;;;;;;3.92;2.53;;;;;;;15.83;44.69;102656.22;5036785;28;20057;-40
2024/01/29 07:39:54;;;;;;;3.58;2.28;;;;;;;15.83;43.97;102660.72;5038005;28;20049;-40
2024/01/29 07:42:22;;;;;;;5.18;2.97;;;;;;;15.81;44.41;102668.00;5037891;28;20464;-39
2024/01/29 07:44:50;;;;;;;3.38;2.50;;;;;;;15.81;44.34;102673.34;5040251;28;20626;-40
2024/01/29 07:47:17;;;;;;;3.38;2.40;;;;;;;15.80;44.88;102667.13;5038580;28;20049;-40
2024/01/29 07:49:46;;;;;;;3.97;2.50;;;;;;;15.78;44.35;102669.88;5039557;28;20050;-40
2024/01/29 07:52:12;;;;;;;3.22;2.83;;;;;;;15.76;44.21;102677.16;5039163;28;20084;-40
2024/01/29 07:54:39;;;;;;;4.63;2.97;;;;;;;15.75;44.66;102663.88;5037802;28;20136;-40
2024/01/29 07:57:06;;;;;;;4.28;2.35;;;;;;;15.73;44.26;102669.31;5036618;28;20057;-40
2024/01/29 07:59:32;;;;;;;4.57;2.92;;;;;;;15.72;44.35;102670.28;5039075;28;20138;-40
2024/01/29 08:01:59;;;;;;;7.57;3.20;;;;;;;15.70;44.45;102671.31;5038664;28;20049;-40
2024/01/29 08:04:26;;;;;;;3.97;2.95;;;;;;;15.64;45.02;102664.50;5035776;28;20053;-40
2024/01/29 08:06:53;;;;;;;3.92;2.80;;;;;;;15.66;45.12;102673.31;5038475;28;20139;-40
2024/01/29 08:09:20;;;;;;;3.63;2.58;;;;;;;15.67;45.52;102676.84;5035668;28;20124;-40
2024/01/29 08:11:47;;;;;;;4.43;2.80;;;;;;;15.71;45.19;102684.56;5035143;28;20582;-40
2024/01/29 08:14:13;;;;;;;4.85;2.63;;;;;;;15.77;45.13;102678.03;5035016;28;20497;-40
2024/01/29 08:16:40;;;;;;;3.50;2.50;;;;;;;15.81;45.25;102679.53;5034783;28;20141;-40
2024/01/29 08:19:07;;;;;;;3.67;2.88;;;;;;;15.85;44.39;102680.22;5022944;28;20111;-41
2024/01/29 08:21:33;;;;;;;4.38;2.60;;;;;;;15.88;44.77;102672.88;5040860;28;20156;-41
2024/01/29 08:24:02;;;;;;;3.65;2.75;;;;;;;15.91;45.21;102677.16;5038382;28;20444;-41
2024/01/29 08:26:29;;;;;;;4.00;3.10;;;;;;;15.93;44.55;102677.94;5037820;28;20053;-40
2024/01/29 08:28:56;;;;;;;3.75;2.60;;;;;;;15.95;44.87;102676.00;5037332;28;20131;-40
2024/01/29 08:31:26;;;;;;;4.45;2.75;;;;;;;15.95;44.16;102671.50;5043580;28;20106;-40
2024/01/29 08:33:53;;;;;;;4.00;2.70;;;;;;;15.96;45.09;102673.25;5041145;28;20053;-40
2024/01/29 08:36:21;;;;;;;3.72;2.50;;;;;;;15.97;44.29;102669.63;5024948;28;20064;-40
2024/01/29 08:38:48;;;;;;;3.47;2.45;;;;;;;15.97;44.90;102668.75;5038973;28;20115;-41
2024/01/29 08:41:15;;;;;;;3.58;2.85;;;;;;;15.99;44.68;102675.72;5041370;28;20053;-40
2024/01/29 08:43:42;;;;;;;3.00;2.70;;;;;;;15.98;44.04;102670.47;5041296;28;20080;-40
2024/01/29 08:46:09;;;;;;;4.85;2.70;;;;;;;15.98;44.83;102676.69;5041664;28;20067;-42
2024/01/29 08:48:36;;;;;;;3.33;2.50;;;;;;;15.98;44.60;102671.34;5041975;28;20057;-42
2024/01/29 08:51:03;;;;;;;3.92;2.50;;;;;;;15.98;44.63;102678.50;5043554;28;20425;-39
2024/01/29 08:53:29;;;;;;;3.97;3.17;;;;;;;16.01;44.61;102681.00;5041777;28;20119;-42
2024/01/29 08:55:57;;;;;;;3.78;2.70;;;;;;;16.02;44.30;102690.72;5041736;28;20166;-39
2024/01/29 08:58:24;;;;;;;3.20;2.65;;;;;;;16.02;44.85;102688.06;5038401;28;20046;-41
2024/01/29 09:00:54;;;;;;;4.68;2.97;;;;;;;16.03;44.88;102690.63;5038642;28;20142;-43
2024/01/29 09:03:21;;;;;;;3.70;2.88;;;;;;;16.03;44.58;102685.28;5037646;28;20057;-40
2024/01/29 09:05:48;;;;;;;3.67;2.97;;;;;;;16.03;44.42;102687.09;5024662;28;20460;-40
2024/01/29 09:08:15;;;;;;;4.13;3.03;;;;;;;16.02;43.66;102693.41;5044706;28;20077;-42
2024/01/29 09:10:45;;;;;;;3.95;2.75;;;;;;;16.02;44.46;102694.25;5021733;28;20056;-40
2024/01/29 09:13:14;;;;;;;4.18;3.10;;;;;;;16.02;44.30;102696.06;5043892;28;20053;-41
2024/01/29 09:15:41;;;;;;;4.88;3.40;;;;;;;16.01;44.26;102691.69;5042917;28;20466;-41
2024/01/29 09:18:08;;;;;;;4.53;3.20;;;;;;;15.98;44.16;102695.41;5045492;28;20053;-41
2024/01/29 09:20:34;;;;;;;5.20;3.13;;;;;;;15.99;44.63;102689.09;5046424;28;20049;-40
2024/01/29 09:23:01;;;;;;;5.72;3.40;;;;;;;15.97;44.70;102688.34;5038606;28;20045;-40
2024/01/29 09:25:28;;;;;;;3.65;2.70;;;;;;;15.97;43.86;102687.50;5045039;28;20238;-40
2024/01/29 09:27:54;;;;;;;3.25;2.83;;;;;;;15.97;44.64;102692.84;5041878;28;20049;-40
2024/01/29 09:30:21;;;;;;;4.20;3.00;;;;;;;15.97;45.02;102690.16;5044191;28;20368;-41
2024/01/29 09:32:48;;;;;;;4.22;2.90;;;;;;;15.98;44.19;102691.88;5044936;28;20480;-40
2024/01/29 09:35:14;;;;;;;4.00;3.13;;;;;;;15.97;44.17;102691.00;5042319;28;20080;-40
2024/01/29 09:37:41;;;;;;;3.72;2.80;;;;;;;15.98;45.02;102687.38;5041492;28;20128;-40
2024/01/29 09:40:14;;;;;;;4.82;3.55;;;;;;;16.00;44.10;102693.50;5045703;28;20146;-41
2024/01/29 09:42:41;;;;;;;4.50;3.43;;;;;;;16.02;44.83;102693.41;5043344;28;20107;-41
2024/01/29 09:45:11;;;;;;;4.65;3.33;;;;;;;16.06;44.19;102694.06;5044159;28;20106;-40
2024/01/29 09:47:39;;;;;;;4.88;3.45;;;;;;;16.07;44.41;102693.13;5039388;28;20057;-40
2024/01/29 09:50:08;;;;;;;4.80;3.22;;;;;;;16.11;45.19;102697.31;5042237;28;20057;-41
2024/01/29 09:52:38;;;;;;;4.15;2.92;;;;;;;16.14;44.47;102699.81;5039805;28;20052;-41
2024/01/29 09:55:05;;;;;;;4.38;3.03;;;;;;;16.19;45.38;102703.91;5038353;28;20085;-41
2024/01/29 09:57:32;;;;;;;4.28;3.10;;;;;;;16.23;44.84;102701.91;5040762;28;20076;-41
2024/01/29 09:59:59;;;;;;;3.60;3.15;;;;;;;16.27;45.00;102708.78;5044249;28;20609;-41
2024/01/29 10:02:27;;;;;;;5.28;3.30;;;;;;;16.33;45.14;102712.91;5042112;28;20045;-41
2024/01/29 10:04:53;;;;;;;4.18;3.03;;;;;;;16.37;44.26;102711.75;5046143;28;20332;-41
2024/01/29 10:07:20;;;;;;;3.53;2.97;;;;;;;16.40;44.78;102716.88;5040508;28;20057;-41
2024/01/29 10:09:50;;;;;;;4.78;2.83;;;;;;;16.46;45.06;102724.53;5041600;28;20339;-40
2024/01/29 10:12:23;;;;;;;4.20;2.95;;;;;;;16.49;44.92;102725.19;5039677;28;20081;-39
2024/01/29 10:14:55;;;;;;;4.82;3.08;;;;;;;16.53;44.96;102732.09;5036776;28;20429;-40
2024/01/29 10:17:25;;;;;;;3.92;2.70;;;;;;;16.58;44.81;102728.25;5040736;28;20053;-39
2024/01/29 10:19:54;;;;;;;3.83;2.67;;;;;;;16.60;44.77;102727.19;5040818;28;20053;-39
2024/01/29 10:22:26;;;;;;;3.95;2.65;;;;;;;16.65;45.60;102727.75;5037886;28;20436;-39
2024/01/29 10:25:03;;;;;;;3.28;2.75;;;;;;;16.68;45.62;102727.56;5039523;28;20083;-39
2024/01/29 10:27:31;;;;;;;4.65;2.97;;;;;;;16.72;45.03;102722.84;5037697;28;20352;-39
2024/01/29 10:29:58;;;;;;;4.20;2.85;;;;;;;16.75;45.46;102730.72;5039997;28;20489;-39
2024/01/29 10:32:25;;;;;;;3.28;2.50;;;;;;;16.78;44.84;102731.38;5036808;28;20049;-39
2024/01/29 10:34:52;;;;;;;2.78;2.25;;;;;;;16.81;44.71;102733.03;5036730;28;20089;-41
2024/01/29 10:37:20;;;;;;;3.42;2.70;;;;;;;16.84;45.03;102738.16;5039951;28;20333;-38
2024/01/29 10:39:48;;;;;;;4.40;3.10;;;;;;;16.87;44.55;102734.44;5037705;28;20484;-40
2024/01/29 10:42:28;;;;;;;4.53;2.72;;;;;;;16.90;44.75;102740.44;5037642;28;20049;-40
2024/01/29 10:44:59;;;;;;;4.15;2.72;;;;;;;16.92;45.24;102743.03;5044119;28;20053;-39
2024/01/29 10:47:33;;;;;;;2.88;2.55;;;;;;;16.93;44.41;102745.63;5034686;28;20487;-40
2024/01/29 10:50:00;;;;;;;4.05;2.70;;;;;;;16.97;44.50;102748.97;5040475;28;20083;-39
2024/01/29 10:52:29;;;;;;;3.78;2.75;;;;;;;16.99;45.21;102745.19;5038323;28;20064;-38
2024/01/29 10:54:57;;;;;;;4.53;2.75;;;;;;;17.01;44.68;102747.78;5034811;28;20045;-40
2024/01/29 10:57:25;;;;;;;4.25;2.80;;;;;;;17.02;44.41;102736.13;5039120;28;20076;-39
2024/01/29 10:59:52;;;;;;;4.45;2.70;;;;;;;17.04;45.38;102736.84;5040505;28;20501;-39
2024/01/29 11:02:19;;;;;;;4.22;2.95;;;;;;;17.07;44.51;102730.44;5037373;28;20056;-38
2024/01/29 11:04:46;;;;;;;4.50;3.00;;;;;;;17.09;44.86;102737.44;5034713;28;20057;-39
2024/01/29 11:07:19;;;;;;;5.70;3.05;;;;;;;17.10;44.98;102736.47;5039094;28;20056;-38
2024/01/29 11:10:19;;;;;;;6.70;3.15;;;;;;;17.10;45.05;102732.94;5036070;28;20126;-38
2024/01/29 11:12:48;;;;;;;3.33;2.58;;;;;;;17.13;44.80;102733.59;5039429;28;20099;-38
2024/01/29 11:15:14;;;;;;;3.95;2.85;;;;;;;17.14;44.42;102729.94;5036467;28;20106;-38
2024/01/29 11:17:42;;;;;;;4.10;2.90;;;;;;;17.14;44.61;102729.94;5036921;28;20460;-39
2024/01/29 11:20:17;;;;;;;4.65;3.20;;;;;;;17.16;44.28;102728.00;5041490;28;20334;-39
2024/01/29 11:23:00;;;;;;;5.93;3.30;;;;;;;17.16;44.89;102728.00;5036308;28;20045;-40
2024/01/29 11:25:29;;;;;;;3.70;2.95;;;;;;;17.19;44.30;102724.28;5045658;28;20394;-38